Latest Weather Observations for Solomon Airport

IDW60801

Issued at 9:43 pm WST Sunday 17 February 2019 (issued every 10 minutes, with the page automatically refreshed every 10 minutes)

About weather observations | Map of weather stations | Latest weather observations for WA | Other Formats
Station Details ID: 505060 Name: SOLOMON AIRPORT Lat: -22.25 Lon: 117.85 Height: 611.47 m
Data from the previous 72 hours. | See also: Recent months for locations in Western Australia
Date/Time
WST
Temp
°C
App
Temp
°C
Dew
Point
°C
Rel
Hum
%
Delta-T
°C
Wind Press
QNH
hPa
Press
MSL
hPa
Rain since
9am
mm
Dir  Spd
km/h
Gust
km/h
Spd
kts
Gust
kts
17/09:30pm 34.3 32.3 12.6 27 13.3 NNW 15 20 8 11 1011.6 1006.1 0.0
17/09:00pm 34.6 31.7 12.3 26 13.7 NNW 19 26 10 14 1011.5 1006.0 0.0
17/08:30pm 34.6 31.7 12.9 27 13.4 NNW 20 28 11 15 1011.3 1005.8 0.0
17/08:00pm 35.0 31.3 12.6 26 13.8 NNW 24 32 13 17 1011.0 1005.5 0.0
17/07:30pm 35.1 31.8 12.7 26 13.8 NNW 22 32 12 17 1010.5 1005.0 0.0
17/07:00pm 34.9 30.3 14.7 29 12.8 NNW 32 43 17 23 1010.0 1004.5 0.0
17/06:30pm 36.1 31.0 14.7 28 13.6 NNW 35 46 19 25 1009.6 1004.1 0.0
17/06:06pm 37.3 33.8 14.6 26 14.5 NNW 26 46 14 25 1009.2 1003.7 0.0
17/06:00pm 38.3 37.4 14.8 25 15.1 WNW 13 41 7 22 1009.2 1003.7 0.0
17/05:59pm 39.8 39.0 14.1 22 16.4 W 11 41 6 22 1009.3 1003.8 0.0
17/05:30pm 41.2 37.7 3.5 10 20.9 SW 11 15 6 8 1008.6 1003.1 0.0
17/05:00pm 41.6 38.2 3.8 10 21.1 WNW 11 15 6 8 1008.4 1002.9 0.0
17/04:30pm 41.8 39.3 4.0 10 21.1 S 6 11 3 6 1008.4 1002.9 0.0
17/04:00pm 41.3 37.8 3.6 10 21.0 SE 11 24 6 13 1008.8 1003.2 0.0
17/03:30pm 41.8 38.8 4.0 10 21.1 NE 9 19 5 10 1009.1 1003.6 0.0
17/03:00pm 41.0 38.4 3.4 10 20.8 E 6 15 3 8 1009.4 1003.9 0.0
17/02:30pm 41.9 38.1 4.0 10 21.2 ESE 13 32 7 17 1009.6 1004.1 0.0
17/02:00pm 41.7 39.0 3.9 10 21.1 E 7 15 4 8 1010.0 1004.5 0.0
17/01:30pm 40.6 36.6 3.1 10 20.6 SE 13 22 7 12 1010.5 1005.0 0.0
17/01:00pm 41.1 37.6 3.4 10 20.9 NE 11 22 6 12 1010.8 1005.3 0.0
17/12:30pm 41.2 36.9 3.5 10 20.9 ENE 15 24 8 13 1011.3 1005.8 0.0
17/12:00pm 40.5 36.9 3.0 10 20.6 ENE 11 24 6 13 1011.9 1006.5 0.0
17/11:30am 40.3 35.5 2.8 10 20.5 E 17 33 9 18 1012.4 1006.9 0.0
17/11:00am 40.4 35.3 2.9 10 20.5 ENE 19 37 10 20 1012.6 1007.1 0.0
17/10:30am 40.2 35.8 2.8 10 20.4 ENE 15 26 8 14 1013.0 1007.5 0.0
17/10:00am 38.8 35.2 3.1 11 19.4 ESE 11 30 6 16 1013.3 1007.8 0.0
17/09:30am 38.1 33.7 2.5 11 19.1 SSE 15 22 8 12 1013.4 1008.0 0.0
17/09:00am 36.7 32.3 2.7 12 18.2 S 15 22 8 12 1013.6 1008.2 0.0
17/08:30am 34.9 31.2 4.4 15 16.6 SW 13 19 7 10 1013.6 1008.2 0.0
17/08:00am 33.0 29.6 3.9 16 15.6 WSW 11 15 6 8 1013.6 1008.2 0.0
17/07:30am 31.3 27.9 4.2 18 14.4 WSW 11 15 6 8 1013.4 1008.0 0.0
17/07:00am 29.9 26.6 4.5 20 13.5 W 11 13 6 7 1013.3 1007.8 0.0
17/06:30am 28.8 25.5 4.3 21 12.9 W 11 17 6 9 1013.2 1007.7 0.0
17/06:00am 28.3 24.5 3.9 21 12.7 W 13 17 7 9 1013.1 1007.6 0.0
17/05:31am 28.4 24.6 4.0 21 12.7 W 13 15 7 8 1012.7 1007.2 0.0
17/05:30am 28.5 24.7 4.1 21 12.7 W 13 15 7 8 1012.7 1007.2 0.0
17/05:17am 28.3 24.5 3.9 21 12.7 W 13 15 7 8 1012.6 1007.1 0.0
17/05:00am 28.3 25.0 4.6 22 12.5 W 11 13 6 7 1012.6 1007.1 0.0
17/04:30am 29.5 26.1 4.2 20 13.3 W 11 15 6 8 1012.5 1007.0 0.0
17/04:00am 28.8 25.8 4.3 21 12.9 W 9 9 5 5 1012.5 1007.0 0.0
17/03:30am 31.0 28.0 3.9 18 14.3 W 9 15 5 8 1012.6 1007.1 0.0
17/03:00am 30.3 27.3 4.1 19 13.8 W 9 11 5 6 1012.7 1007.2 0.0
17/02:30am 31.0 27.6 3.9 18 14.3 W 11 13 6 7 1012.8 1007.3 0.0
17/02:00am 31.3 27.9 4.2 18 14.4 W 11 13 6 7 1012.7 1007.2 0.0
17/01:30am 31.9 28.5 3.8 17 14.9 WSW 11 15 6 8 1012.7 1007.2 0.0
17/01:00am 32.0 30.5 8.3 23 13.5 SW 6 6 3 3 1012.6 1007.1 0.0
17/12:30am 32.6 31.1 10.6 26 13.0 S 9 13 5 7 1012.8 1007.3 0.0
17/12:00am 33.6 32.4 11.5 26 13.3 SW 9 15 5 8 1012.8 1007.3 0.0
 
Date/Time
WST
Temp
°C
App
Temp
°C
Dew
Point
°C
Rel
Hum
%
Delta-T
°C
Wind Press
QNH
hPa
Press
MSL
hPa
Rain since
9am
mm
Dir  Spd
km/h
Gust
km/h
Spd
kts
Gust
kts
16/11:30pm 34.7 32.8 11.8 25 13.9 NNW 13 19 7 10 1012.8 1007.3 0.0
16/11:00pm 35.1 32.1 12.1 25 14.1 NNW 19 26 10 14 1012.9 1007.4 0.0
16/10:30pm 35.3 32.8 12.3 25 14.1 NNW 17 22 9 12 1013.2 1007.7 0.0
16/10:00pm 35.7 33.1 12.0 24 14.5 NNW 17 28 9 15 1013.4 1008.0 0.0
16/09:30pm 36.0 33.1 12.9 25 14.3 N 20 26 11 14 1013.3 1007.8 0.0
16/09:00pm 36.2 34.3 13.0 24 14.4 NNW 15 22 8 12 1013.4 1008.0 0.0
16/08:30pm 36.5 32.4 12.7 24 14.8 NNW 26 33 14 18 1013.0 1007.5 0.0
16/08:00pm 38.6 34.5 6.3 14 18.4 NNE 17 24 9 13 1012.5 1007.0 0.0
16/07:30pm 38.7 36.5 5.4 13 18.7 E 6 7 3 4 1012.1 1006.7 0.0
16/07:00pm 39.1 36.7 4.5 12 19.3 SE 6 7 3 4 1011.8 1006.4 0.0
16/06:30pm 39.9 37.1 5.1 12 19.6 SSE 9 13 5 7 1011.5 1006.0 0.0
16/06:00pm 40.3 37.3 4.2 11 20.1 SE 9 13 5 7 1011.4 1005.9 0.0
16/05:30pm 40.7 37.0 4.5 11 20.3 SE 13 19 7 10 1011.3 1005.8 0.0
16/05:00pm 40.8 38.3 4.6 11 20.4 SSE 7 11 4 6 1011.3 1005.8 0.0
16/04:30pm 40.8 37.5 4.6 11 20.3 SE 11 17 6 9 1011.3 1005.8 0.0
16/04:00pm 41.1 38.2 4.8 11 20.5 SE 9 17 5 9 1011.3 1005.8 0.0
16/03:30pm 41.6 39.8 5.2 11 20.7 SW 4 9 2 5 1011.5 1006.0 0.0
16/03:00pm 41.2 38.9 4.9 11 20.5 SE 6 11 3 6 1011.8 1006.4 0.0
16/02:30pm 40.4 38.1 5.5 12 19.8 ESE 7 17 4 9 1012.1 1006.7 0.0
16/02:00pm 40.7 38.6 5.7 12 20.0 SE 6 15 3 8 1012.5 1007.0 0.0
16/01:30pm 41.6 37.5 6.4 12 20.4 S 17 26 9 14 1012.8 1007.3 0.0
16/01:00pm 40.5 36.9 6.7 13 19.5 S 15 26 8 14 1013.3 1007.8 0.0
16/12:30pm 41.6 37.9 6.4 12 20.4 ESE 15 33 8 18 1013.6 1008.2 0.0
16/12:00pm 40.8 36.6 5.8 12 20.0 SSE 17 32 9 17 1014.1 1008.6 0.0
16/11:30am 40.6 36.4 5.7 12 19.9 SSE 17 30 9 16 1014.6 1009.1 0.0
16/11:00am 39.6 36.0 4.9 12 19.5 SE 13 22 7 12 1015.0 1009.6 0.0
16/10:30am 38.9 34.4 4.4 12 19.1 SE 17 30 9 16 1015.4 1010.0 0.0
16/10:00am 38.5 33.4 4.1 12 19.0 SSE 20 30 11 16 1015.8 1010.3 0.0
16/09:30am 37.9 32.3 3.6 12 18.7 SSE 22 35 12 19 1016.0 1010.5 0.0
16/09:00am 36.5 31.5 3.7 13 17.8 S 19 28 10 15 1016.1 1010.6 0.0
16/08:30am 35.4 30.8 3.9 14 17.0 S 17 26 9 14 1016.2 1010.7 0.0
16/08:00am 33.8 29.2 3.6 15 16.1 SW 17 24 9 13 1016.3 1010.8 0.0
16/07:30am 32.5 28.0 4.3 17 15.1 WSW 17 20 9 11 1016.2 1010.7 0.0
16/07:00am 30.8 27.9 4.5 19 14.0 W 9 13 5 7 1016.1 1010.6 0.0
16/06:30am 29.6 27.1 5.0 21 13.1 W 7 13 4 7 1015.9 1010.4 0.0
16/06:00am 29.9 27.0 4.5 20 13.5 W 9 15 5 8 1015.5 1010.1 0.0
16/05:30am 29.4 26.1 4.8 21 13.1 W 11 15 6 8 1015.3 1009.9 0.0
16/05:00am 29.5 26.6 4.9 21 13.1 W 9 13 5 7 1015.2 1009.8 0.0
16/04:30am 30.0 26.8 5.3 21 13.3 W 11 15 6 8 1015.0 1009.6 0.0
16/04:00am 30.5 26.9 5.0 20 13.7 W 13 19 7 10 1014.7 1009.2 0.0
16/03:30am 30.5 27.1 5.7 21 13.5 W 13 17 7 9 1014.7 1009.2 0.0
16/03:00am 30.6 27.3 6.5 22 13.3 W 13 19 7 10 1014.4 1008.9 0.0
16/02:30am 31.1 28.1 6.2 21 13.7 WSW 11 15 6 8 1014.4 1008.9 0.0
16/02:00am 31.6 29.9 9.8 26 12.7 WSW 9 11 5 6 1014.5 1009.0 0.0
16/01:30am 32.6 31.5 10.0 25 13.3 SSW 6 11 3 6 1014.7 1009.2 0.0
16/01:00am 31.3 30.5 11.1 29 12.0 NE 6 13 3 7 1015.0 1009.6 0.0
16/12:30am 31.2 31.1 12.1 31 11.5 SSE 4 9 2 5 1014.7 1009.2 0.0
16/12:00am 32.6 31.8 11.2 27 12.8 E 6 7 3 4 1014.9 1009.5 0.0
 
Date/Time
WST
Temp
°C
App
Temp
°C
Dew
Point
°C
Rel
Hum
%
Delta-T
°C
Wind Press
QNH
hPa
Press
MSL
hPa
Rain since
9am
mm
Dir  Spd
km/h
Gust
km/h
Spd
kts
Gust
kts
15/11:30pm 33.1 32.3 11.0 26 13.2 NE 6 7 3 4 1015.1 1009.7 0.0
15/11:00pm 34.9 34.6 11.3 24 14.3 NNE 4 7 2 4 1015.4 1010.0 0.0
15/10:30pm 35.2 34.4 11.6 24 14.3 NNW 7 13 4 7 1015.4 1010.0 0.0
15/10:00pm 35.8 33.8 11.4 23 14.8 NNW 13 17 7 9 1015.5 1010.1 0.0
15/09:30pm 36.4 34.9 10.6 21 15.5 NNW 9 17 5 9 1015.8 1010.3 0.0
15/09:00pm 36.7 34.7 10.1 20 15.9 NNW 11 15 6 8 1015.5 1010.1 0.0
15/08:30pm 37.1 35.2 10.4 20 16.1 N 11 15 6 8 1015.3 1009.9 0.0
15/08:00pm 37.4 34.4 10.7 20 16.1 NNW 17 20 9 11 1014.9 1009.5 0.0
15/07:30pm 37.7 35.3 10.1 19 16.6 NE 13 17 7 9 1014.7 1009.2 0.0
15/07:00pm 38.1 36.2 10.5 19 16.7 NE 11 20 6 11 1014.2 1008.7 0.0
15/06:30pm 39.1 37.2 6.7 14 18.6 WSW 6 13 3 7 1013.6 1008.2 0.0
15/06:00pm 38.4 33.0 8.1 16 17.7 ENE 26 50 14 27 1013.7 1008.3 0.0
15/05:58pm 38.3 32.0 9.0 17 17.4 E 32 50 17 27 1013.6 1008.2 0.0
15/05:41pm 40.4 34.7 6.7 13 19.5 E 26 41 14 22 1013.0 1007.5 0.0
15/05:30pm 40.3 37.4 6.6 13 19.4 ENE 11 22 6 12 1013.0 1007.5 0.0
15/05:13pm 40.7 36.4 6.9 13 19.6 SE 19 41 10 22 1012.9 1007.4 0.0
15/05:00pm 41.1 39.0 6.0 12 20.2 SSW 6 17 3 9 1013.0 1007.5 0.0
15/04:30pm 40.4 38.3 6.7 13 19.5 NNE 7 15 4 8 1013.0 1007.5 0.0
15/04:00pm 40.1 37.2 6.4 13 19.4 E 11 17 6 9 1013.0 1007.5 0.0
15/03:30pm 41.4 38.3 7.4 13 19.9 SSW 13 22 7 12 1013.1 1007.6 0.0
15/03:00pm 40.8 39.3 7.0 13 19.7 ESE 4 11 2 6 1013.2 1007.7 0.0
15/02:30pm 39.8 36.7 7.3 14 18.9 SE 13 22 7 12 1013.4 1008.0 0.0
15/02:00pm 39.3 36.5 6.9 14 18.7 E 11 24 6 13 1013.6 1008.2 0.0
15/01:30pm 40.0 37.6 8.5 15 18.6 SE 11 22 6 12 1014.1 1008.6 0.0
15/01:00pm 40.3 37.9 8.7 15 18.8 S 11 26 6 14 1014.4 1008.9 0.0
15/12:30pm 40.1 38.4 8.5 15 18.7 W 7 17 4 9 1014.9 1009.5 0.0
15/12:00pm 39.3 36.6 8.9 16 18.0 WSW 13 28 7 15 1015.2 1009.8 0.0
15/11:30am 38.8 36.8 8.5 16 17.8 S 9 24 5 13 1015.8 1010.3 0.0
15/11:00am 38.4 35.7 9.0 17 17.4 SW 13 26 7 14 1016.3 1010.8 0.0
15/10:30am 37.7 34.7 9.3 18 16.8 S 15 24 8 13 1016.8 1011.4 0.0
15/10:00am 36.2 34.3 10.4 21 15.4 S 11 19 6 10 1017.0 1011.6 0.0
15/09:30am 34.8 33.5 12.5 26 13.7 S 11 17 6 9 1017.3 1011.9 0.0
15/09:00am 33.2 32.4 12.8 29 12.5 SSW 9 13 5 7 1017.6 1012.1 2.2
15/08:30am 31.7 30.6 13.0 32 11.4 SW 11 19 6 10 1017.6 1012.1 2.2
15/08:00am 29.7 29.9 14.7 40 9.3 WSW 7 11 4 6 1017.5 1012.0 2.2
15/07:30am 28.4 28.9 15.0 44 8.4 WSW 6 9 3 5 1017.3 1011.9 2.2
15/07:00am 27.1 28.9 16.4 52 6.8 WNW 2 4 1 2 1017.1 1011.7 2.2
15/06:30am 25.9 28.6 18.6 64 4.8 WNW 2 4 1 2 1016.7 1011.3 2.2
15/06:00am 24.3 26.1 17.5 66 4.3 WNW 4 6 2 3 1016.2 1010.7 2.2
15/05:30am 24.3 27.1 18.0 68 4.1 CALM 0 2 0 1 1016.0 1010.5 2.2
15/05:00am 26.0 27.8 16.5 55 6.0 ESE 2 4 1 2 1015.9 1010.4 2.2
15/04:30am 25.6 26.9 16.2 56 5.9 N 4 6 2 3 1015.5 1010.1 2.2
15/04:00am 26.6 28.4 17.4 57 5.9 E 4 6 2 3 1015.6 1010.2 2.2
15/03:30am 26.7 28.6 16.6 54 6.4 NNE 2 7 1 4 1015.3 1009.9 2.2
15/03:00am 27.1 28.6 15.8 50 7.1 S 2 4 1 2 1015.3 1009.9 2.2
15/02:30am 27.9 28.6 15.5 46 7.8 WSW 6 7 3 4 1015.3 1009.9 2.2
15/02:00am 30.1 29.6 15.0 40 9.5 WNW 11 17 6 9 1015.3 1009.9 2.2
15/01:30am 29.6 30.2 15.3 41 9.0 WSW 6 9 3 5 1015.5 1010.1 2.2
15/01:00am 30.2 30.2 15.1 40 9.5 NW 9 13 5 7 1015.6 1010.2 2.2
15/12:30am 30.9 29.5 14.5 37 10.2 NNW 15 20 8 11 1015.6 1010.2 2.2
15/12:00am 30.9 29.0 15.3 38 9.8 NNW 19 26 10 14 1015.8 1010.3 2.2
 
Date/Time
WST
Temp
°C
App
Temp
°C
Dew
Point
°C
Rel
Hum
%
Delta-T
°C
Wind Press
QNH
hPa
Press
MSL
hPa
Rain since
9am
mm
Dir  Spd
km/h
Gust
km/h
Spd
kts
Gust
kts
14/11:30pm 30.9 29.6 15.7 39 9.7 NNW 17 20 9 11 1016.0 1010.5 2.2
14/11:00pm 31.4 31.1 15.4 38 10.1 NNW 11 19 6 10 1016.2 1010.7 2.2
14/10:30pm 31.4 30.7 15.4 38 10.1 NNW 13 17 7 9 1015.9 1010.4 2.2
14/10:00pm 31.6 30.0 15.1 36 10.4 NNW 17 20 9 11 1015.6 1010.2 2.2

Other Formats:

Comma delimited format used in spreadsheet applications
http://www.bom.gov.au/fwo/IDW60801/IDW60801.99217.axf

JavaScript Object Notation format (JSON) in row-major order
http://www.bom.gov.au/fwo/IDW60801/IDW60801.99217.json